Johannesburg, South Africa
Current Conditions -  °F | °C
As of 5:00 PM on Tuesday 21 Oct 2014 (Local Time) from FAOR Reporting Station
Rain Showers Rain Showers  
Wind Chill: 81°   Ceiling: Unl
Heat Index: 81°   Visibility: 6mi
Dew Point: 39°   Wind: 10mph
Humidity: 23%   Direction: 350°N
Pressure: 30.21"   Gusts: NA
Location:  26.19°S, 28.04°E
Report Text: FAOR 211500Z 35009KT 310V020 9999 VCSH FEW045TCU 27/04 Q1023 TEMPO -TSRA FEW040CB RMK CB TO S
Loading
Personal Weather Stations






























Interactive Weather Map
Tropical Storm Tracking
New forecast layout! Learn more

10-Day Weather Forecast

Advertisements
Track Severe Weather on mobile